Terminal Aerodrome Forecast
Issued by NWS

Home | Current Version | Previous Version | Text Only | Print | Product List | Glossary Off
Versions: 1 2 3 4 5 6 7 8 9 10 11 12 13 14 15 16 17 18 19

000
FTUS41 KCLE 231700
TAFFDY
TAF
KFDY 231729Z 2318/2418 33011KT P6SM OVC022
      TEMPO 2318/2321 5SM -DZ BR BKN018
     FM232100 34011KT P6SM BKN030
     FM240100 36009KT P6SM SCT035
     FM240300 02006KT P6SM FEW035=

USA.gov is the U.S. government's official web portal to all federal, state and local government web resources and services.